Time;durP1;ratioP1;P1;durP2;ratioP2;P2;SDS_P1;SDS_P2;PMS_P1;PMS_P2;Temp;Humidity;BMP_temperature;BMP_pressure;BME280_temperature;BME280_humidity;BME280_pressure;Samples;Min_cycle;Max_cycle;Signal;HPM_P1;HPM_P2
2023/05/16 00:00:07;;;;;;;6.70;5.10;;;;;;;16.79;47.83;100763.41;108156;1287;22008;-58
2023/05/16 00:02:38;;;;;;;8.30;5.70;;;;;;;16.79;47.94;100760.39;108174;1287;21988;-58
2023/05/16 00:05:06;;;;;;;9.30;5.90;;;;;;;16.78;48.14;100757.03;108179;1287;21989;-58
2023/05/16 00:07:33;;;;;;;6.90;6.10;;;;;;;16.78;48.53;100755.61;108215;1287;23719;-59
2023/05/16 00:09:58;;;;;;;7.00;5.60;;;;;;;16.80;48.78;100755.56;108103;1287;22000;-57
2023/05/16 00:12:24;;;;;;;6.40;5.60;;;;;;;16.83;48.97;100752.99;107360;1288;1003132;-58
2023/05/16 00:14:51;;;;;;;7.60;5.00;;;;;;;16.87;49.29;100755.16;108127;1287;22079;-58
2023/05/16 00:17:19;;;;;;;6.50;5.00;;;;;;;16.94;49.38;100749.29;108137;1288;21989;-58
2023/05/16 00:19:47;;;;;;;8.80;5.30;;;;;;;17.05;49.31;100744.16;108197;1288;21992;-57
2023/05/16 00:22:17;;;;;;;8.30;5.80;;;;;;;17.17;49.23;100743.95;108187;1287;24380;-58
2023/05/16 00:24:43;;;;;;;9.80;5.90;;;;;;;17.27;49.23;100737.94;108236;1287;21995;-58
2023/05/16 00:27:08;;;;;;;7.50;6.00;;;;;;;17.36;49.26;100734.98;108153;1287;21982;-60
2023/05/16 00:29:34;;;;;;;7.30;5.60;;;;;;;17.42;49.55;100736.52;108223;1287;21991;-57
2023/05/16 00:32:00;;;;;;;9.90;5.60;;;;;;;17.47;49.83;100735.83;108186;1287;22567;-60
2023/05/16 00:34:26;;;;;;;10.00;6.10;;;;;;;17.51;49.85;100736.58;108114;1287;21989;-58
2023/05/16 00:36:52;;;;;;;11.10;5.60;;;;;;;17.57;49.58;100738.85;108194;1287;21992;-60
2023/05/16 00:39:18;;;;;;;9.20;5.80;;;;;;;17.63;49.70;100739.50;108171;1287;22021;-58
2023/05/16 00:41:44;;;;;;;9.10;6.50;;;;;;;17.67;49.81;100736.87;108252;1287;21995;-59
2023/05/16 00:44:10;;;;;;;9.90;6.50;;;;;;;17.70;50.11;100735.88;108222;1287;21988;-59
2023/05/16 00:46:36;;;;;;;7.70;6.40;;;;;;;17.71;50.27;100736.40;108159;1287;21985;-59
2023/05/16 00:49:02;;;;;;;8.70;6.60;;;;;;;17.70;50.42;100739.25;108193;1287;22001;-58
2023/05/16 00:51:28;;;;;;;11.10;6.20;;;;;;;17.71;50.75;100737.79;108220;1287;21996;-58
2023/05/16 00:53:54;;;;;;;7.90;5.70;;;;;;;17.74;50.76;100736.27;108189;1287;22000;-57
2023/05/16 00:56:20;;;;;;;7.20;6.20;;;;;;;17.77;50.77;100734.04;108052;1287;21987;-60
2023/05/16 00:58:46;;;;;;;8.10;6.20;;;;;;;17.81;50.73;100738.50;108013;1287;24373;-58
2023/05/16 01:01:11;;;;;;;7.60;6.50;;;;;;;17.85;50.96;100735.52;108168;1287;21987;-60
2023/05/16 01:03:37;;;;;;;8.70;6.50;;;;;;;17.88;50.96;100737.04;108190;1287;21957;-58
2023/05/16 01:06:03;;;;;;;8.40;7.30;;;;;;;17.91;51.20;100734.77;107903;1288;22024;-59
2023/05/16 01:08:29;;;;;;;9.20;6.90;;;;;;;17.95;51.47;100739.04;108098;1289;21997;-58
2023/05/16 01:11:01;;;;;;;9.50;7.00;;;;;;;18.00;51.66;100739.43;108133;1288;22001;-58
2023/05/16 01:13:43;;;;;;;9.90;6.60;;;;;;;18.05;51.55;100741.23;107886;1288;22000;-59
2023/05/16 01:16:11;;;;;;;9.30;6.40;;;;;;;18.11;51.30;100739.03;108133;1288;23065;-58
2023/05/16 01:18:43;;;;;;;8.70;6.40;;;;;;;18.20;51.13;100737.46;108130;1288;22004;-58
2023/05/16 01:21:15;;;;;;;11.30;6.80;;;;;;;18.28;51.10;100732.88;108122;1289;21986;-58
2023/05/16 01:24:02;;;;;;;8.30;5.90;;;;;;;18.37;50.89;100728.26;108173;1287;23434;-58
2023/05/16 01:26:28;;;;;;;8.80;6.50;;;;;;;18.45;50.94;100722.80;108128;1287;24152;-59
2023/05/16 01:28:54;;;;;;;8.50;6.60;;;;;;;18.50;51.17;100719.95;107863;1287;21989;-58
2023/05/16 01:31:20;;;;;;;7.80;6.30;;;;;;;18.50;51.23;100720.84;107947;1288;21993;-58
2023/05/16 01:33:47;;;;;;;6.90;6.00;;;;;;;18.46;51.36;100717.27;108177;1288;22083;-59
2023/05/16 01:36:28;;;;;;;7.80;6.50;;;;;;;18.42;51.23;100718.63;108044;1288;21958;-59
2023/05/16 01:39:02;;;;;;;9.90;6.30;;;;;;;18.43;51.53;100720.37;108106;1288;21994;-58
2023/05/16 01:41:41;;;;;;;8.80;6.80;;;;;;;18.46;51.47;100721.88;108099;1287;22064;-58
2023/05/16 01:44:10;;;;;;;10.50;7.40;;;;;;;18.50;51.69;100720.12;108136;1287;21985;-58
2023/05/16 01:46:40;;;;;;;9.00;7.40;;;;;;;18.56;51.69;100717.39;108077;1288;21986;-58
2023/05/16 01:49:25;;;;;;;15.30;7.00;;;;;;;18.61;51.38;100709.91;107856;1288;21989;-58
2023/05/16 01:51:54;;;;;;;7.80;5.80;;;;;;;18.64;51.12;100701.08;108100;1287;22002;-58
2023/05/16 01:54:20;;;;;;;7.60;6.40;;;;;;;18.68;51.34;100698.59;108166;1287;21992;-58
2023/05/16 01:56:53;;;;;;;12.30;7.20;;;;;;;18.71;51.57;100702.22;107840;1287;21990;-60
2023/05/16 01:59:22;;;;;;;11.00;7.10;;;;;;;18.75;51.69;100702.74;108172;1287;21995;-58
2023/05/16 02:01:48;;;;;;;10.00;6.80;;;;;;;18.79;51.73;100698.16;105164;1287;1006136;-58
2023/05/16 02:04:14;;;;;;;8.80;7.00;;;;;;;18.82;51.65;100700.70;108088;1288;22004;-58
2023/05/16 02:06:41;;;;;;;6.70;5.90;;;;;;;18.86;51.43;100700.35;108105;1288;21994;-59
2023/05/16 02:09:07;;;;;;;10.70;6.30;;;;;;;18.90;51.37;100700.89;108116;1288;21987;-58
2023/05/16 02:11:33;;;;;;;7.00;5.70;;;;;;;18.95;51.67;100699.46;108109;1287;21992;-58
2023/05/16 02:13:58;;;;;;;10.10;5.50;;;;;;;18.98;51.70;100699.14;108068;1288;21987;-58
2023/05/16 02:16:24;;;;;;;9.90;6.90;;;;;;;19.02;51.59;100703.61;108070;1288;21991;-59
2023/05/16 02:18:50;;;;;;;12.30;7.10;;;;;;;19.06;51.50;100703.45;108064;1288;21986;-58
2023/05/16 02:21:15;;;;;;;18.10;8.60;;;;;;;19.09;51.45;100706.88;108130;1287;22006;-58
2023/05/16 02:23:41;;;;;;;18.30;10.50;;;;;;;19.11;51.40;100711.23;108065;1287;22105;-58
2023/05/16 02:26:07;;;;;;;21.20;11.10;;;;;;;19.13;51.48;100707.06;108077;1287;21986;-60
2023/05/16 02:28:33;;;;;;;18.60;11.90;;;;;;;19.15;51.55;100704.84;108074;1287;21992;-58
2023/05/16 02:30:59;;;;;;;22.40;11.90;;;;;;;19.14;51.67;100699.89;108186;1287;21997;-58
2023/05/16 02:33:26;;;;;;;20.90;12.50;;;;;;;19.14;51.74;100700.64;108096;1287;22020;-57
2023/05/16 02:35:52;;;;;;;39.50;13.40;;;;;;;19.13;51.86;100705.11;108175;1287;21987;-58
2023/05/16 02:38:19;;;;;;;18.80;11.70;;;;;;;19.13;51.84;100703.89;108136;1287;22001;-58
2023/05/16 02:40:48;;;;;;;24.40;11.20;;;;;;;19.12;51.80;100696.23;108109;1287;22024;-58
2023/05/16 02:43:14;;;;;;;21.70;11.10;;;;;;;19.14;51.66;100696.36;108172;1287;22071;-58
2023/05/16 02:45:40;;;;;;;18.20;9.90;;;;;;;19.14;51.60;100699.90;108072;1287;21996;-59
2023/05/16 02:48:06;;;;;;;14.40;8.30;;;;;;;19.17;51.60;100702.66;108113;1287;21987;-59
2023/05/16 02:50:33;;;;;;;15.00;8.20;;;;;;;19.19;51.57;100705.42;108092;1287;21996;-58
2023/05/16 02:53:01;;;;;;;24.20;9.40;;;;;;;19.21;51.60;100705.14;108065;1287;21995;-59
2023/05/16 02:55:29;;;;;;;13.10;8.60;;;;;;;19.23;51.89;100705.79;108121;1287;22183;-59
2023/05/16 02:57:55;;;;;;;11.70;8.60;;;;;;;19.23;52.22;100708.26;108097;1287;21995;-59
2023/05/16 03:00:21;;;;;;;13.80;8.70;;;;;;;19.20;52.28;100709.29;108080;1283;22000;-59
2023/05/16 03:02:47;;;;;;;17.70;7.80;;;;;;;19.17;52.37;100712.08;108151;1287;21997;-59
2023/05/16 03:05:13;;;;;;;16.50;7.90;;;;;;;19.15;53.05;100710.91;108138;1287;22026;-59
2023/05/16 03:07:39;;;;;;;14.70;7.90;;;;;;;19.10;53.61;100712.00;108116;1287;21999;-59
2023/05/16 03:10:06;;;;;;;11.50;6.80;;;;;;;19.06;54.13;100711.84;108407;1287;21995;-59
2023/05/16 03:12:32;;;;;;;9.70;6.30;;;;;;;19.05;54.43;100712.74;108289;1287;21994;-59
2023/05/16 03:14:58;;;;;;;9.60;7.20;;;;;;;19.07;54.98;100712.85;108281;1287;21992;-59
2023/05/16 03:17:23;;;;;;;12.80;6.10;;;;;;;19.08;55.90;100714.94;108116;1287;21985;-59
2023/05/16 03:19:49;;;;;;;15.30;6.60;;;;;;;19.07;55.86;100717.10;108180;1288;21997;-60
2023/05/16 03:22:15;;;;;;;8.00;5.90;;;;;;;19.08;55.80;100712.61;108163;1288;22004;-59
2023/05/16 03:24:41;;;;;;;15.60;5.90;;;;;;;19.10;55.89;100712.17;108218;1288;21988;-58
2023/05/16 03:27:06;;;;;;;9.20;5.40;;;;;;;19.12;56.11;100713.85;108301;1287;21978;-58
2023/05/16 03:29:32;;;;;;;8.70;5.30;;;;;;;19.15;56.36;100714.30;108144;1287;21996;-60
2023/05/16 03:31:58;;;;;;;13.60;7.10;;;;;;;19.18;56.45;100709.38;108094;1288;21990;-58
2023/05/16 03:34:24;;;;;;;10.50;6.30;;;;;;;19.20;56.29;100708.76;108151;1288;21989;-59
2023/05/16 03:36:50;;;;;;;13.90;6.70;;;;;;;19.22;56.12;100712.02;108188;1287;22000;-58
2023/05/16 03:39:16;;;;;;;7.60;5.60;;;;;;;19.26;56.15;100715.77;108139;1287;22041;-58
2023/05/16 03:41:42;;;;;;;9.20;5.20;;;;;;;19.31;56.37;100717.69;108146;1287;21989;-61
2023/05/16 03:44:07;;;;;;;7.50;5.90;;;;;;;19.35;56.40;100725.86;108173;1287;21988;-57
2023/05/16 03:46:34;;;;;;;7.60;5.40;;;;;;;19.39;56.04;100732.30;108026;1287;21986;-57
2023/05/16 03:49:00;;;;;;;10.80;6.30;;;;;;;19.43;56.12;100726.59;108983;1287;21990;-61
2023/05/16 03:51:26;;;;;;;9.60;6.40;;;;;;;19.50;55.98;100717.77;108201;1287;23041;-60
2023/05/16 03:53:53;;;;;;;11.00;6.40;;;;;;;19.56;56.40;100718.20;108142;1287;21995;-59
2023/05/16 03:56:20;;;;;;;9.10;5.50;;;;;;;19.60;57.16;100722.48;108070;1287;24240;-60
2023/05/16 03:58:46;;;;;;;10.80;5.70;;;;;;;19.64;56.83;100724.27;108139;1287;21989;-58
2023/05/16 04:01:12;;;;;;;11.50;6.20;;;;;;;19.70;56.69;100725.06;107434;1287;1003201;-59
2023/05/16 04:03:38;;;;;;;12.30;7.40;;;;;;;19.75;56.99;100725.00;108172;1287;21990;-60
2023/05/16 04:06:04;;;;;;;10.90;6.50;;;;;;;19.81;57.04;100732.08;108172;1286;21991;-58
2023/05/16 04:08:30;;;;;;;10.60;6.60;;;;;;;19.88;56.59;100734.08;108172;1287;21988;-58
2023/05/16 04:10:56;;;;;;;8.50;6.00;;;;;;;19.94;56.91;100731.31;108126;1287;22029;-56
2023/05/16 04:13:21;;;;;;;11.00;6.40;;;;;;;19.98;57.00;100726.33;108189;1287;21998;-57
2023/05/16 04:15:47;;;;;;;12.70;5.70;;;;;;;20.03;57.11;100726.98;108062;1287;22009;-57
2023/05/16 04:18:13;;;;;;;13.30;6.30;;;;;;;20.08;56.88;100732.80;108068;1288;21989;-58
2023/05/16 04:20:38;;;;;;;9.50;5.50;;;;;;;20.13;56.78;100731.15;108108;1288;24012;-57
2023/05/16 04:23:04;;;;;;;8.00;4.80;;;;;;;20.19;56.72;100731.23;108124;1288;22000;-56
2023/05/16 04:25:30;;;;;;;9.00;5.60;;;;;;;20.23;56.68;100726.60;108101;1287;22007;-58
2023/05/16 04:27:56;;;;;;;7.00;5.50;;;;;;;20.26;57.19;100726.66;108066;1287;21992;-59
2023/05/16 04:30:22;;;;;;;7.40;5.70;;;;;;;20.28;57.06;100724.95;108050;1286;21999;-57
2023/05/16 04:32:47;;;;;;;7.80;6.20;;;;;;;20.31;57.16;100727.26;108037;1287;22000;-59
2023/05/16 04:35:13;;;;;;;8.00;5.80;;;;;;;20.35;57.09;100725.45;108132;1287;21990;-56
2023/05/16 04:37:39;;;;;;;7.40;4.80;;;;;;;20.41;57.44;100723.61;108104;1287;21989;-59
2023/05/16 04:40:06;;;;;;;9.10;5.20;;;;;;;20.45;57.14;100724.14;108119;1287;22040;-58
2023/05/16 04:42:32;;;;;;;8.40;5.70;;;;;;;20.49;56.47;100723.20;108103;1287;21991;-57
2023/05/16 04:44:58;;;;;;;9.10;5.70;;;;;;;20.56;56.71;100725.77;108156;1286;21990;-57
2023/05/16 04:47:23;;;;;;;9.60;6.10;;;;;;;20.62;56.22;100729.02;108001;1287;21997;-56
2023/05/16 04:49:49;;;;;;;10.20;5.60;;;;;;;20.71;56.52;100726.80;108134;1287;22007;-57
2023/05/16 04:52:15;;;;;;;7.00;4.80;;;;;;;20.83;56.93;100716.09;108178;1287;21992;-57
2023/05/16 04:54:41;;;;;;;6.30;4.60;;;;;;;20.85;56.18;100707.42;108173;1287;21996;-58
2023/05/16 04:57:07;;;;;;;9.10;5.60;;;;;;;20.90;56.10;100709.34;108127;1288;21987;-58
2023/05/16 04:59:32;;;;;;;6.60;4.90;;;;;;;20.96;55.63;100707.60;108091;1288;21986;-58
2023/05/16 05:01:58;;;;;;;11.60;5.90;;;;;;;21.07;55.66;100705.94;108098;1288;21995;-58
2023/05/16 05:04:24;;;;;;;9.90;6.00;;;;;;;21.56;56.33;100711.24;108169;1287;22048;-58
2023/05/16 05:06:49;;;;;;;8.30;5.30;;;;;;;22.29;56.17;100708.98;108083;1287;22029;-60
2023/05/16 05:09:16;;;;;;;9.10;5.40;;;;;;;22.25;55.78;100707.96;108086;1288;21992;-58
2023/05/16 05:11:41;;;;;;;8.40;5.50;;;;;;;21.85;53.05;100708.70;108115;1287;21989;-59
2023/05/16 05:14:07;;;;;;;10.40;5.30;;;;;;;21.73;52.50;100715.40;108099;1288;21992;-60
2023/05/16 05:16:34;;;;;;;13.80;5.50;;;;;;;21.73;51.94;100718.77;107996;1288;21985;-59
2023/05/16 05:19:00;;;;;;;6.20;4.80;;;;;;;21.78;51.19;100716.03;107837;1288;23615;-58
2023/05/16 05:21:25;;;;;;;7.50;4.70;;;;;;;21.82;50.73;100710.64;108114;1288;21996;-59
2023/05/16 05:23:51;;;;;;;8.90;4.60;;;;;;;21.88;50.49;100715.15;108057;1287;21999;-58
2023/05/16 05:26:17;;;;;;;7.50;5.00;;;;;;;21.94;50.19;100720.15;108067;1287;22043;-57
2023/05/16 05:28:42;;;;;;;5.60;4.10;;;;;;;22.04;49.68;100725.71;108103;1288;21996;-58
2023/05/16 05:31:08;;;;;;;7.30;4.70;;;;;;;22.09;49.14;100726.12;107393;1287;1002169;-58
2023/05/16 05:33:34;;;;;;;10.80;4.80;;;;;;;22.16;48.95;100727.73;108165;1287;21992;-57
2023/05/16 05:35:59;;;;;;;7.90;4.70;;;;;;;22.22;48.95;100735.95;108133;1287;21995;-59
2023/05/16 05:38:25;;;;;;;8.70;4.70;;;;;;;22.29;48.36;100739.17;108137;1287;21994;-59
2023/05/16 05:40:51;;;;;;;7.50;5.00;;;;;;;22.36;48.02;100744.11;108153;1287;21988;-58
2023/05/16 05:43:17;;;;;;;5.70;4.70;;;;;;;22.48;48.00;100749.55;108196;1287;21996;-57
2023/05/16 05:45:43;;;;;;;8.30;4.60;;;;;;;22.62;47.95;100749.36;108100;1288;22003;-61
2023/05/16 05:48:09;;;;;;;5.90;4.80;;;;;;;22.75;47.60;100750.77;108075;1288;21991;-58
2023/05/16 05:50:36;;;;;;;6.90;4.50;;;;;;;22.85;47.47;100753.54;108163;1287;22005;-60
2023/05/16 05:53:01;;;;;;;7.20;4.40;;;;;;;22.95;47.19;100755.47;108171;1287;21986;-59
2023/05/16 05:55:27;;;;;;;5.60;4.50;;;;;;;23.05;47.30;100753.48;108132;1287;21997;-58
2023/05/16 05:57:53;;;;;;;6.80;4.70;;;;;;;23.15;47.30;100749.14;108207;1287;21993;-59
2023/05/16 06:00:19;;;;;;;6.90;4.90;;;;;;;23.23;46.82;100752.63;108148;1287;22000;-59
2023/05/16 06:02:44;;;;;;;6.70;4.80;;;;;;;23.29;46.68;100749.40;108059;1287;21999;-60
2023/05/16 06:05:10;;;;;;;7.50;5.90;;;;;;;23.35;45.76;100747.30;108091;1288;21992;-59
2023/05/16 06:07:36;;;;;;;7.20;4.60;;;;;;;23.40;45.32;100745.91;108086;1288;21994;-59
2023/05/16 06:10:04;;;;;;;6.60;4.60;;;;;;;23.47;45.03;100739.77;108131;1287;21990;-59
2023/05/16 06:12:30;;;;;;;15.00;6.20;;;;;;;23.54;44.92;100738.28;108220;1287;21991;-59
2023/05/16 06:14:56;;;;;;;14.10;4.90;;;;;;;23.66;44.56;100736.43;108228;1287;21991;-59
2023/05/16 06:17:21;;;;;;;8.20;5.10;;;;;;;23.80;43.77;100740.45;108123;1287;22053;-59
2023/05/16 06:19:47;;;;;;;8.70;5.10;;;;;;;23.93;43.05;100738.20;108134;1287;22191;-59
2023/05/16 06:22:13;;;;;;;5.80;3.80;;;;;;;24.04;42.63;100739.52;108091;1288;21992;-59
2023/05/16 06:24:39;;;;;;;8.00;4.40;;;;;;;24.13;41.87;100733.19;108080;1288;21995;-59
2023/05/16 06:27:06;;;;;;;5.80;3.90;;;;;;;24.16;41.20;100735.34;108115;1288;22010;-59
2023/05/16 06:29:31;;;;;;;8.90;5.30;;;;;;;24.21;40.75;100736.64;107392;1287;1003122;-59
2023/05/16 06:31:57;;;;;;;5.80;3.30;;;;;;;24.29;40.78;100730.77;108155;1287;21995;-58
2023/05/16 06:34:26;;;;;;;8.20;3.70;;;;;;;24.40;40.70;100729.83;108158;1287;21994;-59
2023/05/16 06:36:55;;;;;;;6.00;3.20;;;;;;;24.49;39.94;100729.14;108174;1287;22003;-59
2023/05/16 06:39:21;;;;;;;7.30;3.50;;;;;;;24.57;39.66;100727.16;108208;1287;22002;-59
2023/05/16 06:41:46;;;;;;;5.30;3.30;;;;;;;24.65;39.64;100723.08;108141;1287;21998;-58
2023/05/16 06:44:12;;;;;;;5.70;3.80;;;;;;;24.75;39.45;100727.96;108023;1287;21998;-59
2023/05/16 06:46:38;;;;;;;5.50;3.30;;;;;;;24.83;38.98;100728.02;108236;1287;21997;-60
2023/05/16 06:49:03;;;;;;;5.70;3.40;;;;;;;24.85;38.84;100726.98;108166;1287;22032;-59
2023/05/16 06:51:30;;;;;;;8.40;3.40;;;;;;;24.87;38.64;100724.11;108104;1288;22008;-60
2023/05/16 06:53:56;;;;;;;6.20;3.10;;;;;;;24.93;38.82;100719.43;108142;1288;21989;-58
2023/05/16 06:56:22;;;;;;;4.90;3.20;;;;;;;25.02;38.81;100716.48;108137;1288;23087;-62
2023/05/16 06:58:49;;;;;;;4.20;3.00;;;;;;;25.12;37.98;100720.53;108186;1287;21997;-59
2023/05/16 07:01:15;;;;;;;6.50;3.10;;;;;;;25.25;37.93;100717.48;108094;1288;21987;-59
2023/05/16 07:03:41;;;;;;;5.80;3.20;;;;;;;25.39;38.06;100715.98;108137;1288;22000;-59
2023/05/16 07:06:06;;;;;;;4.50;2.80;;;;;;;25.47;37.61;100718.30;108117;1288;22024;-59
2023/05/16 07:08:34;;;;;;;5.40;2.80;;;;;;;25.55;37.25;100715.95;108169;1287;21987;-59
2023/05/16 07:11:00;;;;;;;6.80;3.40;;;;;;;25.61;36.76;100715.91;108182;1287;21991;-59
2023/05/16 07:13:26;;;;;;;7.60;2.90;;;;;;;25.70;36.66;100714.70;108197;1287;22742;-59
2023/05/16 07:15:52;;;;;;;6.20;3.10;;;;;;;25.82;36.27;100713.89;108143;1287;22044;-59
2023/05/16 07:18:18;;;;;;;4.70;2.60;;;;;;;25.97;35.75;100714.98;108195;1287;21991;-59
2023/05/16 07:20:44;;;;;;;6.20;3.20;;;;;;;26.22;35.98;100711.93;108135;1288;21996;-58
2023/05/16 07:23:10;;;;;;;5.20;3.10;;;;;;;26.48;36.00;100708.63;108105;1288;22059;-59
2023/05/16 07:25:36;;;;;;;4.80;2.70;;;;;;;26.66;35.29;100708.38;108160;1287;22849;-59
2023/05/16 07:28:02;;;;;;;7.00;2.70;;;;;;;26.75;34.56;100702.83;108085;1288;21999;-59
2023/05/16 07:30:30;;;;;;;6.10;2.40;;;;;;;26.79;34.17;100701.80;108235;1288;21994;-59
2023/05/16 07:32:56;;;;;;;3.00;2.00;;;;;;;26.82;33.93;100704.86;108092;1288;22522;-60
2023/05/16 07:35:21;;;;;;;6.20;2.60;;;;;;;26.84;33.57;100703.11;108082;1288;22031;-59
2023/05/16 07:37:47;;;;;;;9.60;2.90;;;;;;;26.93;33.99;100703.17;108202;1287;21994;-59
2023/05/16 07:40:13;;;;;;;5.90;2.60;;;;;;;27.07;34.15;100705.15;108151;1287;21992;-59
2023/05/16 07:42:39;;;;;;;6.10;2.40;;;;;;;27.22;33.95;100704.52;108177;1287;21996;-60
2023/05/16 07:45:06;;;;;;;7.30;2.60;;;;;;;27.32;33.72;100701.20;108126;1287;21984;-59
2023/05/16 07:47:32;;;;;;;5.20;2.40;;;;;;;27.36;32.80;100701.69;107855;1288;22011;-60
2023/05/16 07:49:57;;;;;;;9.50;3.20;;;;;;;27.38;32.37;100700.95;108152;1288;21990;-59
2023/05/16 07:52:23;;;;;;;3.40;2.70;;;;;;;27.48;32.24;100706.34;108103;1288;21996;-59
2023/05/16 07:54:49;;;;;;;3.50;2.10;;;;;;;27.60;31.32;100704.81;108052;1287;21994;-59
2023/05/16 07:57:14;;;;;;;4.40;2.70;;;;;;;27.83;31.86;100709.16;108192;1287;21996;-59
2023/05/16 07:59:40;;;;;;;9.20;2.60;;;;;;;28.05;31.18;100709.27;107996;1287;22573;-60
2023/05/16 08:02:06;;;;;;;7.90;2.60;;;;;;;28.27;31.45;100711.41;108134;1287;21987;-59
2023/05/16 08:04:32;;;;;;;18.20;3.30;;;;;;;28.43;30.54;100707.98;107940;1288;22000;-59
2023/05/16 08:06:57;;;;;;;7.30;3.10;;;;;;;28.47;30.15;100705.60;108134;1288;22000;-58
2023/05/16 08:09:23;;;;;;;10.90;3.60;;;;;;;28.46;30.18;100706.39;108102;1288;22009;-59
2023/05/16 08:11:49;;;;;;;46.20;4.70;;;;;;;28.50;30.23;100704.80;108118;1287;22046;-59
2023/05/16 08:14:14;;;;;;;8.90;3.30;;;;;;;28.57;30.27;100703.36;108067;1288;22000;-59
2023/05/16 08:16:40;;;;;;;12.60;2.60;;;;;;;28.63;29.81;100705.41;108114;1288;21986;-59
2023/05/16 08:19:06;;;;;;;4.50;2.30;;;;;;;28.67;30.41;100706.16;108092;1288;21987;-59
2023/05/16 08:21:33;;;;;;;6.40;2.80;;;;;;;28.66;29.35;100709.27;108110;1288;22045;-60
2023/05/16 08:23:58;;;;;;;4.90;2.60;;;;;;;28.59;29.43;100704.63;108166;1287;22061;-59
2023/05/16 08:26:24;;;;;;;9.30;2.60;;;;;;;28.55;29.28;100708.03;108134;1287;22537;-59
2023/05/16 08:28:50;;;;;;;10.30;2.30;;;;;;;28.49;29.55;100707.96;108127;1287;21991;-60
2023/05/16 08:31:15;;;;;;;5.80;2.80;;;;;;;28.39;28.83;100709.89;108213;1287;21987;-60
2023/05/16 08:33:41;;;;;;;4.30;2.20;;;;;;;28.31;28.94;100705.49;108166;1287;21994;-58
2023/05/16 08:36:08;;;;;;;6.30;2.60;;;;;;;28.33;28.79;100702.95;108061;1288;21991;-59
2023/05/16 08:38:34;;;;;;;6.20;2.10;;;;;;;28.44;28.73;100700.66;108145;1287;21983;-60
2023/05/16 08:41:00;;;;;;;5.70;2.50;;;;;;;28.65;29.17;100695.70;108118;1287;21995;-60
2023/05/16 08:43:26;;;;;;;6.80;2.30;;;;;;;28.89;28.50;100692.61;108199;1287;21993;-59
2023/05/16 08:45:52;;;;;;;5.40;2.40;;;;;;;29.14;28.55;100694.27;108113;1287;21984;-61
2023/05/16 08:48:19;;;;;;;4.40;2.30;;;;;;;29.40;28.15;100699.11;108177;1287;21994;-58
2023/05/16 08:50:45;;;;;;;5.00;2.50;;;;;;;29.59;28.56;100695.85;108065;1288;21997;-60
2023/05/16 08:53:11;;;;;;;5.60;2.70;;;;;;;29.79;28.12;100697.36;107798;1288;143465;-60
2023/05/16 08:55:37;;;;;;;2.90;1.70;;;;;;;30.05;27.79;100699.40;107832;1288;21981;-58
2023/05/16 08:58:03;;;;;;;4.90;2.20;;;;;;;30.21;27.23;100700.36;107790;1288;21991;-60
2023/05/16 09:00:28;;;;;;;4.30;2.30;;;;;;;30.10;26.25;100697.35;107834;1288;21994;-59
2023/05/16 09:02:54;;;;;;;6.00;2.00;;;;;;;29.88;26.65;100698.57;107786;1288;21989;-60
2023/05/16 09:05:21;;;;;;;7.80;2.50;;;;;;;29.71;26.93;100699.67;107835;1288;21987;-59
2023/05/16 09:07:46;;;;;;;6.00;2.50;;;;;;;29.65;27.21;100699.30;108154;1287;21994;-59
2023/05/16 09:10:12;;;;;;;6.60;2.30;;;;;;;29.69;27.29;100699.18;108256;1287;21985;-60
2023/05/16 09:12:39;;;;;;;4.60;2.40;;;;;;;29.76;27.41;100703.06;108242;1287;22061;-59
2023/05/16 09:15:05;;;;;;;11.50;2.60;;;;;;;29.98;27.67;100700.19;108149;1284;21990;-60
2023/05/16 09:17:39;;;;;;;7.80;2.50;;;;;;;30.27;27.15;100697.27;108110;1287;21985;-60
2023/05/16 09:20:10;;;;;;;6.70;2.20;;;;;;;30.50;26.40;100696.23;108129;1287;22769;-61
2023/05/16 09:22:37;;;;;;;10.00;2.60;;;;;;;30.56;26.08;100699.55;108116;1287;21999;-60
2023/05/16 09:25:03;;;;;;;8.20;2.60;;;;;;;30.72;26.98;100691.05;108125;1287;21986;-60
2023/05/16 09:27:30;;;;;;;8.00;2.30;;;;;;;30.92;26.63;100684.77;107902;1288;22066;-59
2023/05/16 09:29:56;;;;;;;6.20;2.20;;;;;;;31.15;26.41;100692.09;108087;1288;24333;-59
2023/05/16 09:32:22;;;;;;;10.80;2.30;;;;;;;31.32;25.97;100690.16;108181;1287;21991;-60
2023/05/16 09:34:50;;;;;;;4.80;2.70;;;;;;;31.42;26.47;100681.96;108128;1287;21996;-60
2023/05/16 09:37:19;;;;;;;6.90;2.30;;;;;;;31.31;25.12;100686.05;108113;1284;22087;-60
2023/05/16 09:39:49;;;;;;;7.40;2.50;;;;;;;31.26;24.90;100687.80;108118;1288;21993;-59
2023/05/16 09:42:15;;;;;;;6.20;2.40;;;;;;;31.21;24.59;100688.69;108137;1287;21983;-59
2023/05/16 09:44:46;;;;;;;7.30;2.20;;;;;;;31.19;25.08;100687.95;108083;1287;21989;-59
2023/05/16 09:47:19;;;;;;;5.10;2.70;;;;;;;31.25;25.29;100691.13;108108;1287;21986;-59
2023/05/16 09:49:45;;;;;;;11.20;2.50;;;;;;;31.41;25.51;100687.63;108071;1287;22022;-59
2023/05/16 09:52:11;;;;;;;6.30;2.20;;;;;;;31.61;25.74;100685.22;108167;1287;22018;-60
2023/05/16 09:54:37;;;;;;;4.00;1.90;;;;;;;31.78;24.68;100687.20;107980;1287;21983;-59
2023/05/16 09:57:03;;;;;;;9.30;2.80;;;;;;;31.84;24.15;100688.98;108112;1287;21983;-59
2023/05/16 09:59:38;;;;;;;5.10;2.00;;;;;;;31.66;23.75;100689.46;108075;1287;21990;-59
2023/05/16 10:02:07;;;;;;;9.70;2.00;;;;;;;31.53;24.14;100686.36;108062;1288;21993;-60
2023/05/16 10:04:34;;;;;;;5.70;2.00;;;;;;;31.52;24.76;100681.77;108114;1287;21985;-60
2023/05/16 10:07:02;;;;;;;8.80;2.10;;;;;;;31.71;24.83;100685.02;108209;1287;21998;-59
2023/05/16 10:09:27;;;;;;;5.80;1.80;;;;;;;31.86;24.16;100688.45;108066;1287;21991;-60
2023/05/16 10:11:53;;;;;;;6.10;2.10;;;;;;;31.77;24.22;100682.62;107869;1287;21989;-60
2023/05/16 10:14:19;;;;;;;5.20;1.90;;;;;;;31.73;24.37;100680.30;107843;1287;23725;-61
2023/05/16 10:16:45;;;;;;;8.20;2.10;;;;;;;31.77;24.14;100678.21;108034;1287;22080;-59
2023/05/16 10:19:11;;;;;;;7.80;1.90;;;;;;;31.94;24.74;100676.41;108121;1287;21998;-61
2023/05/16 10:21:37;;;;;;;3.90;2.00;;;;;;;32.05;24.55;100675.70;107931;1287;21987;-59
2023/05/16 10:24:05;;;;;;;4.90;1.80;;;;;;;32.07;24.17;100675.31;107964;1287;21994;-60
2023/05/16 10:26:32;;;;;;;9.20;2.00;;;;;;;32.07;23.36;100674.23;108087;1287;22038;-58
2023/05/16 10:28:59;;;;;;;14.10;2.60;;;;;;;32.11;23.61;100678.67;107895;1288;21994;-59
2023/05/16 10:31:25;;;;;;;14.80;2.50;;;;;;;32.24;24.06;100677.13;108145;1288;21998;-59
2023/05/16 10:33:51;;;;;;;4.10;2.50;;;;;;;32.30;23.68;100677.62;108118;1288;21996;-60
2023/05/16 10:36:17;;;;;;;3.80;1.90;;;;;;;32.31;23.73;100672.25;107847;1288;23730;-59
2023/05/16 10:38:42;;;;;;;5.10;2.60;;;;;;;32.34;23.44;100677.25;107862;1288;23695;-58
2023/05/16 10:41:08;;;;;;;8.40;1.90;;;;;;;32.29;23.09;100671.55;107907;1287;21991;-61
2023/05/16 10:43:34;;;;;;;3.60;1.80;;;;;;;32.21;23.44;100669.05;107811;1288;21987;-59
2023/05/16 10:46:08;;;;;;;4.50;1.80;;;;;;;32.13;23.47;100670.17;108068;1288;21984;-61
2023/05/16 10:48:38;;;;;;;6.80;2.10;;;;;;;32.06;23.66;100663.27;108139;1287;21984;-59
2023/05/16 10:51:22;;;;;;;4.70;2.00;;;;;;;32.02;23.39;100666.85;108043;1287;22154;-59
2023/05/16 10:53:50;;;;;;;2.90;1.70;;;;;;;32.00;23.36;100662.74;108070;1287;21986;-59
2023/05/16 10:56:21;;;;;;;5.40;2.00;;;;;;;31.88;23.06;100665.02;108096;1283;21998;-61
2023/05/16 10:58:47;;;;;;;5.30;1.90;;;;;;;31.81;23.33;100660.67;107958;1287;21994;-60
2023/05/16 11:01:14;;;;;;;4.40;1.60;;;;;;;31.81;23.75;100657.69;107873;1288;22008;-59
2023/05/16 11:03:55;;;;;;;4.90;1.80;;;;;;;31.80;23.51;100650.08;108157;1283;22731;-61
2023/05/16 11:06:28;;;;;;;10.70;2.00;;;;;;;31.88;23.72;100644.23;108056;1287;21987;-60
2023/05/16 11:09:26;;;;;;;3.00;1.70;;;;;;;31.84;23.19;100643.33;108089;1287;21992;-60
2023/05/16 11:11:51;;;;;;;5.30;1.90;;;;;;;31.84;22.92;100645.30;107974;1287;22461;-61